sensor_id;sensor_type;location;lat;lon;timestamp;P1;durP1;ratioP1;P2;durP2;ratioP2
66886;SDS011;53798;51.680;5.976;2022-12-18T00:01:27;64.50;;;29.75;;
66886;SDS011;53798;51.680;5.976;2022-12-18T00:03:58;64.50;;;27.75;;
66886;SDS011;53798;51.680;5.976;2022-12-18T00:06:27;58.75;;;28.42;;
66886;SDS011;53798;51.680;5.976;2022-12-18T00:08:57;64.53;;;28.90;;
66886;SDS011;53798;51.680;5.976;2022-12-18T00:11:26;61.75;;;27.90;;
66886;SDS011;53798;51.680;5.976;2022-12-18T00:13:56;66.25;;;28.17;;
66886;SDS011;53798;51.680;5.976;2022-12-18T00:16:28;60.17;;;29.75;;
66886;SDS011;53798;51.680;5.976;2022-12-18T00:18:57;59.20;;;27.30;;
66886;SDS011;53798;51.680;5.976;2022-12-18T00:21:24;62.13;;;27.23;;
66886;SDS011;53798;51.680;5.976;2022-12-18T00:23:54;55.85;;;26.65;;
66886;SDS011;53798;51.680;5.976;2022-12-18T00:26:23;54.25;;;26.17;;
66886;SDS011;53798;51.680;5.976;2022-12-18T00:29:01;55.40;;;26.20;;
66886;SDS011;53798;51.680;5.976;2022-12-18T00:31:33;57.05;;;25.75;;
66886;SDS011;53798;51.680;5.976;2022-12-18T00:34:01;53.33;;;25.25;;
66886;SDS011;53798;51.680;5.976;2022-12-18T00:36:31;53.35;;;25.38;;
66886;SDS011;53798;51.680;5.976;2022-12-18T00:39:01;49.75;;;25.08;;
66886;SDS011;53798;51.680;5.976;2022-12-18T00:41:31;53.03;;;25.60;;
66886;SDS011;53798;51.680;5.976;2022-12-18T00:44:18;55.25;;;25.50;;
66886;SDS011;53798;51.680;5.976;2022-12-18T00:46:46;50.05;;;24.15;;
66886;SDS011;53798;51.680;5.976;2022-12-18T00:49:16;51.53;;;23.48;;
66886;SDS011;53798;51.680;5.976;2022-12-18T00:51:46;55.80;;;24.15;;
66886;SDS011;53798;51.680;5.976;2022-12-18T00:54:13;50.70;;;25.15;;
66886;SDS011;53798;51.680;5.976;2022-12-18T00:56:41;51.50;;;25.23;;
66886;SDS011;53798;51.680;5.976;2022-12-18T00:59:16;51.30;;;24.35;;
66886;SDS011;53798;51.680;5.976;2022-12-18T01:01:44;53.15;;;25.63;;
66886;SDS011;53798;51.680;5.976;2022-12-18T01:04:13;56.38;;;26.30;;
66886;SDS011;53798;51.680;5.976;2022-12-18T01:06:44;53.55;;;25.08;;
66886;SDS011;53798;51.680;5.976;2022-12-18T01:09:11;54.33;;;25.10;;
66886;SDS011;53798;51.680;5.976;2022-12-18T01:11:39;51.78;;;26.08;;
66886;SDS011;53798;51.680;5.976;2022-12-18T01:14:06;53.88;;;24.98;;
66886;SDS011;53798;51.680;5.976;2022-12-18T01:16:35;50.88;;;24.83;;
66886;SDS011;53798;51.680;5.976;2022-12-18T01:19:03;49.40;;;23.52;;
66886;SDS011;53798;51.680;5.976;2022-12-18T01:21:31;49.33;;;24.15;;
66886;SDS011;53798;51.680;5.976;2022-12-18T01:24:02;48.38;;;23.48;;
66886;SDS011;53798;51.680;5.976;2022-12-18T01:26:30;47.42;;;23.17;;
66886;SDS011;53798;51.680;5.976;2022-12-18T01:28:57;52.72;;;23.88;;
66886;SDS011;53798;51.680;5.976;2022-12-18T01:31:29;46.88;;;23.08;;
66886;SDS011;53798;51.680;5.976;2022-12-18T01:34:08;50.08;;;22.08;;
66886;SDS011;53798;51.680;5.976;2022-12-18T01:36:35;45.55;;;20.52;;
66886;SDS011;53798;51.680;5.976;2022-12-18T01:39:06;47.22;;;21.38;;
66886;SDS011;53798;51.680;5.976;2022-12-18T01:41:42;47.80;;;22.33;;
66886;SDS011;53798;51.680;5.976;2022-12-18T01:49:57;42.40;;;21.58;;
66886;SDS011;53798;51.680;5.976;2022-12-18T01:52:33;40.10;;;20.90;;
66886;SDS011;53798;51.680;5.976;2022-12-18T01:55:03;41.72;;;20.45;;
66886;SDS011;53798;51.680;5.976;2022-12-18T01:57:32;43.85;;;20.00;;
66886;SDS011;53798;51.680;5.976;2022-12-18T02:00:05;41.35;;;20.13;;
66886;SDS011;53798;51.680;5.976;2022-12-18T02:02:40;38.70;;;19.13;;
66886;SDS011;53798;51.680;5.976;2022-12-18T02:05:12;39.10;;;19.55;;
66886;SDS011;53798;51.680;5.976;2022-12-18T02:28:30;39.47;;;19.52;;
66886;SDS011;53798;51.680;5.976;2022-12-18T02:31:06;37.63;;;17.85;;
66886;SDS011;53798;51.680;5.976;2022-12-18T02:33:40;39.78;;;18.17;;
66886;SDS011;53798;51.680;5.976;2022-12-18T02:36:12;38.40;;;18.27;;
66886;SDS011;53798;51.680;5.976;2022-12-18T02:38:43;36.83;;;18.60;;
66886;SDS011;53798;51.680;5.976;2022-12-18T02:41:15;37.03;;;17.77;;
66886;SDS011;53798;51.680;5.976;2022-12-18T02:43:48;35.55;;;18.15;;
66886;SDS011;53798;51.680;5.976;2022-12-18T02:46:29;32.72;;;17.15;;
66886;SDS011;53798;51.680;5.976;2022-12-18T02:49:12;35.75;;;17.77;;
66886;SDS011;53798;51.680;5.976;2022-12-18T03:01:36;34.80;;;16.92;;
66886;SDS011;53798;51.680;5.976;2022-12-18T03:04:16;37.17;;;17.13;;
66886;SDS011;53798;51.680;5.976;2022-12-18T03:06:56;33.17;;;17.05;;
66886;SDS011;53798;51.680;5.976;2022-12-18T03:09:34;37.03;;;16.92;;
66886;SDS011;53798;51.680;5.976;2022-12-18T03:12:14;33.10;;;16.00;;
66886;SDS011;53798;51.680;5.976;2022-12-18T03:15:08;33.83;;;16.63;;
66886;SDS011;53798;51.680;5.976;2022-12-18T03:17:52;32.22;;;16.60;;
66886;SDS011;53798;51.680;5.976;2022-12-18T03:20:30;33.85;;;17.17;;
66886;SDS011;53798;51.680;5.976;2022-12-18T03:23:08;34.17;;;16.33;;
66886;SDS011;53798;51.680;5.976;2022-12-18T03:25:44;34.92;;;17.52;;
66886;SDS011;53798;51.680;5.976;2022-12-18T03:28:16;36.97;;;17.42;;
66886;SDS011;53798;51.680;5.976;2022-12-18T03:30:55;33.53;;;16.95;;
66886;SDS011;53798;51.680;5.976;2022-12-18T03:33:34;36.22;;;17.20;;
66886;SDS011;53798;51.680;5.976;2022-12-18T03:36:10;30.17;;;16.63;;
66886;SDS011;53798;51.680;5.976;2022-12-18T03:38:38;30.35;;;15.85;;
66886;SDS011;53798;51.680;5.976;2022-12-18T03:56:03;30.05;;;15.25;;
66886;SDS011;53798;51.680;5.976;2022-12-18T03:58:37;28.73;;;14.20;;
66886;SDS011;53798;51.680;5.976;2022-12-18T04:01:16;31.85;;;15.70;;
66886;SDS011;53798;51.680;5.976;2022-12-18T04:03:47;30.88;;;14.50;;
66886;SDS011;53798;51.680;5.976;2022-12-18T04:06:18;30.58;;;15.02;;
66886;SDS011;53798;51.680;5.976;2022-12-18T04:08:47;26.83;;;14.50;;
66886;SDS011;53798;51.680;5.976;2022-12-18T04:11:19;32.88;;;15.45;;
66886;SDS011;53798;51.680;5.976;2022-12-18T04:13:48;27.77;;;14.38;;
66886;SDS011;53798;51.680;5.976;2022-12-18T04:16:20;29.33;;;13.98;;
66886;SDS011;53798;51.680;5.976;2022-12-18T04:18:51;26.90;;;14.55;;
66886;SDS011;53798;51.680;5.976;2022-12-18T04:21:20;28.77;;;14.40;;
66886;SDS011;53798;51.680;5.976;2022-12-18T04:23:48;26.05;;;13.63;;
66886;SDS011;53798;51.680;5.976;2022-12-18T04:26:19;29.17;;;15.32;;
66886;SDS011;53798;51.680;5.976;2022-12-18T04:29:04;29.08;;;14.30;;
66886;SDS011;53798;51.680;5.976;2022-12-18T04:31:31;28.13;;;14.95;;
66886;SDS011;53798;51.680;5.976;2022-12-18T04:33:59;28.83;;;15.32;;
66886;SDS011;53798;51.680;5.976;2022-12-18T04:36:27;30.55;;;15.45;;
66886;SDS011;53798;51.680;5.976;2022-12-18T04:38:55;29.08;;;14.90;;
66886;SDS011;53798;51.680;5.976;2022-12-18T04:41:22;30.65;;;15.55;;
66886;SDS011;53798;51.680;5.976;2022-12-18T04:43:51;27.70;;;14.60;;
66886;SDS011;53798;51.680;5.976;2022-12-18T04:46:18;31.95;;;14.85;;
66886;SDS011;53798;51.680;5.976;2022-12-18T04:48:46;29.13;;;14.75;;
66886;SDS011;53798;51.680;5.976;2022-12-18T04:51:13;29.00;;;15.35;;
66886;SDS011;53798;51.680;5.976;2022-12-18T04:53:41;29.13;;;15.45;;
66886;SDS011;53798;51.680;5.976;2022-12-18T04:56:10;29.80;;;14.25;;
66886;SDS011;53798;51.680;5.976;2022-12-18T04:58:41;27.35;;;14.32;;
66886;SDS011;53798;51.680;5.976;2022-12-18T05:01:11;25.15;;;14.57;;
66886;SDS011;53798;51.680;5.976;2022-12-18T05:03:40;29.58;;;14.88;;
66886;SDS011;53798;51.680;5.976;2022-12-18T05:06:08;28.73;;;15.15;;
66886;SDS011;53798;51.680;5.976;2022-12-18T05:08:36;28.98;;;15.45;;
66886;SDS011;53798;51.680;5.976;2022-12-18T05:11:10;32.85;;;16.20;;
66886;SDS011;53798;51.680;5.976;2022-12-18T05:13:42;27.23;;;15.20;;
66886;SDS011;53798;51.680;5.976;2022-12-18T05:16:12;27.52;;;15.50;;
66886;SDS011;53798;51.680;5.976;2022-12-18T05:18:41;27.92;;;15.02;;
66886;SDS011;53798;51.680;5.976;2022-12-18T05:21:09;28.52;;;15.20;;
66886;SDS011;53798;51.680;5.976;2022-12-18T05:23:36;26.92;;;14.90;;
66886;SDS011;53798;51.680;5.976;2022-12-18T05:26:05;29.65;;;15.43;;
66886;SDS011;53798;51.680;5.976;2022-12-18T05:28:35;28.08;;;14.77;;
66886;SDS011;53798;51.680;5.976;2022-12-18T05:31:03;27.13;;;14.63;;
66886;SDS011;53798;51.680;5.976;2022-12-18T05:33:33;27.13;;;14.27;;
66886;SDS011;53798;51.680;5.976;2022-12-18T05:36:03;26.55;;;15.45;;
66886;SDS011;53798;51.680;5.976;2022-12-18T05:38:34;30.92;;;15.90;;
66886;SDS011;53798;51.680;5.976;2022-12-18T05:41:10;29.50;;;15.85;;
66886;SDS011;53798;51.680;5.976;2022-12-18T05:43:39;32.13;;;16.50;;
66886;SDS011;53798;51.680;5.976;2022-12-18T05:46:11;28.05;;;15.82;;
66886;SDS011;53798;51.680;5.976;2022-12-18T05:48:42;30.27;;;15.32;;
66886;SDS011;53798;51.680;5.976;2022-12-18T05:51:11;31.13;;;15.60;;
66886;SDS011;53798;51.680;5.976;2022-12-18T05:53:42;28.10;;;15.13;;
66886;SDS011;53798;51.680;5.976;2022-12-18T05:56:13;29.80;;;15.27;;
66886;SDS011;53798;51.680;5.976;2022-12-18T05:58:44;27.75;;;15.52;;
66886;SDS011;53798;51.680;5.976;2022-12-18T06:01:13;27.50;;;15.25;;
66886;SDS011;53798;51.680;5.976;2022-12-18T06:03:53;29.75;;;16.38;;
66886;SDS011;53798;51.680;5.976;2022-12-18T06:06:25;29.70;;;16.00;;
66886;SDS011;53798;51.680;5.976;2022-12-18T06:08:54;30.13;;;14.85;;
66886;SDS011;53798;51.680;5.976;2022-12-18T06:11:24;25.88;;;14.68;;
66886;SDS011;53798;51.680;5.976;2022-12-18T06:13:53;27.65;;;15.68;;
66886;SDS011;53798;51.680;5.976;2022-12-18T06:16:25;26.85;;;15.32;;
66886;SDS011;53798;51.680;5.976;2022-12-18T06:18:57;27.10;;;15.45;;
66886;SDS011;53798;51.680;5.976;2022-12-18T06:21:27;28.08;;;16.00;;
66886;SDS011;53798;51.680;5.976;2022-12-18T06:23:55;29.55;;;15.30;;
66886;SDS011;53798;51.680;5.976;2022-12-18T06:26:23;26.83;;;14.98;;
66886;SDS011;53798;51.680;5.976;2022-12-18T06:28:56;26.85;;;15.48;;
66886;SDS011;53798;51.680;5.976;2022-12-18T06:31:24;26.55;;;14.75;;
66886;SDS011;53798;51.680;5.976;2022-12-18T06:33:52;27.60;;;14.38;;
66886;SDS011;53798;51.680;5.976;2022-12-18T06:36:21;25.92;;;14.68;;
66886;SDS011;53798;51.680;5.976;2022-12-18T06:38:48;27.60;;;14.90;;
66886;SDS011;53798;51.680;5.976;2022-12-18T06:41:17;29.55;;;14.90;;
66886;SDS011;53798;51.680;5.976;2022-12-18T06:43:47;29.20;;;16.33;;
66886;SDS011;53798;51.680;5.976;2022-12-18T06:46:14;28.65;;;15.75;;
66886;SDS011;53798;51.680;5.976;2022-12-18T06:48:42;26.42;;;15.07;;
66886;SDS011;53798;51.680;5.976;2022-12-18T06:51:09;28.05;;;15.32;;
66886;SDS011;53798;51.680;5.976;2022-12-18T06:53:36;27.17;;;15.27;;
66886;SDS011;53798;51.680;5.976;2022-12-18T06:56:05;25.23;;;14.90;;
66886;SDS011;53798;51.680;5.976;2022-12-18T06:58:37;24.67;;;14.10;;
66886;SDS011;53798;51.680;5.976;2022-12-18T07:01:06;23.35;;;13.85;;
66886;SDS011;53798;51.680;5.976;2022-12-18T07:03:37;24.08;;;14.65;;
66886;SDS011;53798;51.680;5.976;2022-12-18T07:06:14;24.80;;;14.30;;
66886;SDS011;53798;51.680;5.976;2022-12-18T07:08:46;25.52;;;14.75;;
66886;SDS011;53798;51.680;5.976;2022-12-18T07:11:15;25.70;;;14.57;;
66886;SDS011;53798;51.680;5.976;2022-12-18T07:13:44;25.95;;;14.98;;
66886;SDS011;53798;51.680;5.976;2022-12-18T07:16:17;26.38;;;14.75;;
66886;SDS011;53798;51.680;5.976;2022-12-18T07:18:51;28.45;;;15.00;;
66886;SDS011;53798;51.680;5.976;2022-12-18T07:21:22;22.98;;;13.38;;
66886;SDS011;53798;51.680;5.976;2022-12-18T07:23:51;23.40;;;14.30;;
66886;SDS011;53798;51.680;5.976;2022-12-18T07:26:18;24.85;;;15.00;;
66886;SDS011;53798;51.680;5.976;2022-12-18T07:28:47;24.13;;;14.07;;
66886;SDS011;53798;51.680;5.976;2022-12-18T07:31:16;26.40;;;15.18;;
66886;SDS011;53798;51.680;5.976;2022-12-18T07:33:47;28.92;;;14.68;;
66886;SDS011;53798;51.680;5.976;2022-12-18T07:36:15;25.48;;;14.43;;
66886;SDS011;53798;51.680;5.976;2022-12-18T07:38:46;26.15;;;14.63;;
66886;SDS011;53798;51.680;5.976;2022-12-18T07:41:15;26.45;;;14.35;;
66886;SDS011;53798;51.680;5.976;2022-12-18T07:43:45;23.33;;;14.00;;
66886;SDS011;53798;51.680;5.976;2022-12-18T07:46:13;23.45;;;14.80;;
66886;SDS011;53798;51.680;5.976;2022-12-18T07:48:42;26.25;;;14.88;;
66886;SDS011;53798;51.680;5.976;2022-12-18T07:51:15;27.88;;;14.32;;
66886;SDS011;53798;51.680;5.976;2022-12-18T07:53:44;23.88;;;14.80;;
66886;SDS011;53798;51.680;5.976;2022-12-18T07:56:11;26.15;;;14.65;;
66886;SDS011;53798;51.680;5.976;2022-12-18T07:58:58;27.27;;;14.75;;
66886;SDS011;53798;51.680;5.976;2022-12-18T08:01:25;23.30;;;13.80;;
66886;SDS011;53798;51.680;5.976;2022-12-18T08:03:54;23.67;;;14.40;;
66886;SDS011;53798;51.680;5.976;2022-12-18T08:06:21;27.00;;;15.23;;
66886;SDS011;53798;51.680;5.976;2022-12-18T08:08:52;24.52;;;14.45;;
66886;SDS011;53798;51.680;5.976;2022-12-18T08:11:21;26.52;;;14.52;;
66886;SDS011;53798;51.680;5.976;2022-12-18T08:13:51;23.23;;;13.68;;
66886;SDS011;53798;51.680;5.976;2022-12-18T08:16:19;23.90;;;14.13;;
66886;SDS011;53798;51.680;5.976;2022-12-18T08:18:51;21.48;;;13.43;;
66886;SDS011;53798;51.680;5.976;2022-12-18T08:21:21;21.85;;;13.63;;
66886;SDS011;53798;51.680;5.976;2022-12-18T08:23:51;22.67;;;13.82;;
66886;SDS011;53798;51.680;5.976;2022-12-18T08:26:22;22.95;;;13.93;;
66886;SDS011;53798;51.680;5.976;2022-12-18T08:28:50;23.15;;;13.40;;
66886;SDS011;53798;51.680;5.976;2022-12-18T08:31:18;23.65;;;13.80;;
66886;SDS011;53798;51.680;5.976;2022-12-18T08:33:48;23.02;;;13.48;;
66886;SDS011;53798;51.680;5.976;2022-12-18T08:36:17;24.63;;;13.60;;
66886;SDS011;53798;51.680;5.976;2022-12-18T08:38:46;24.88;;;15.13;;
66886;SDS011;53798;51.680;5.976;2022-12-18T08:41:14;22.48;;;13.50;;
66886;SDS011;53798;51.680;5.976;2022-12-18T08:43:44;21.92;;;13.00;;
66886;SDS011;53798;51.680;5.976;2022-12-18T08:46:32;20.77;;;13.55;;
66886;SDS011;53798;51.680;5.976;2022-12-18T08:49:06;23.23;;;13.15;;
66886;SDS011;53798;51.680;5.976;2022-12-18T08:51:36;20.45;;;12.35;;
66886;SDS011;53798;51.680;5.976;2022-12-18T08:54:04;20.50;;;12.40;;
66886;SDS011;53798;51.680;5.976;2022-12-18T08:56:33;19.65;;;11.60;;
66886;SDS011;53798;51.680;5.976;2022-12-18T08:59:00;20.85;;;12.52;;
66886;SDS011;53798;51.680;5.976;2022-12-18T09:01:28;19.88;;;11.93;;
66886;SDS011;53798;51.680;5.976;2022-12-18T09:03:55;21.40;;;12.25;;
66886;SDS011;53798;51.680;5.976;2022-12-18T09:06:22;20.17;;;12.18;;
66886;SDS011;53798;51.680;5.976;2022-12-18T09:08:50;18.27;;;11.63;;
66886;SDS011;53798;51.680;5.976;2022-12-18T09:11:19;18.02;;;10.75;;
66886;SDS011;53798;51.680;5.976;2022-12-18T09:13:52;17.00;;;10.93;;
66886;SDS011;53798;51.680;5.976;2022-12-18T09:16:21;17.80;;;11.00;;
66886;SDS011;53798;51.680;5.976;2022-12-18T09:18:57;17.48;;;10.18;;
66886;SDS011;53798;51.680;5.976;2022-12-18T09:21:35;17.17;;;9.88;;
66886;SDS011;53798;51.680;5.976;2022-12-18T09:24:03;16.90;;;10.38;;
66886;SDS011;53798;51.680;5.976;2022-12-18T09:26:34;18.98;;;10.90;;
66886;SDS011;53798;51.680;5.976;2022-12-18T09:29:03;18.05;;;10.55;;
66886;SDS011;53798;51.680;5.976;2022-12-18T09:31:31;17.27;;;11.15;;
66886;SDS011;53798;51.680;5.976;2022-12-18T09:34:00;17.95;;;10.45;;
66886;SDS011;53798;51.680;5.976;2022-12-18T09:36:27;18.10;;;11.80;;
66886;SDS011;53798;51.680;5.976;2022-12-18T09:38:54;17.45;;;11.30;;
66886;SDS011;53798;51.680;5.976;2022-12-18T09:47:17;18.30;;;11.27;;
66886;SDS011;53798;51.680;5.976;2022-12-18T09:49:59;16.35;;;10.27;;
66886;SDS011;53798;51.680;5.976;2022-12-18T09:52:39;17.73;;;10.73;;
66886;SDS011;53798;51.680;5.976;2022-12-18T09:55:57;18.90;;;10.85;;
66886;SDS011;53798;51.680;5.976;2022-12-18T10:00:36;17.80;;;10.77;;
66886;SDS011;53798;51.680;5.976;2022-12-18T10:03:11;16.50;;;10.00;;
66886;SDS011;53798;51.680;5.976;2022-12-18T10:11:46;16.67;;;10.20;;
66886;SDS011;53798;51.680;5.976;2022-12-18T10:14:32;15.70;;;10.00;;
66886;SDS011;53798;51.680;5.976;2022-12-18T10:17:26;16.88;;;11.18;;
66886;SDS011;53798;51.680;5.976;2022-12-18T10:20:26;18.02;;;11.18;;
66886;SDS011;53798;51.680;5.976;2022-12-18T10:28:32;18.95;;;11.00;;
66886;SDS011;53798;51.680;5.976;2022-12-18T10:33:34;18.30;;;11.07;;
66886;SDS011;53798;51.680;5.976;2022-12-18T10:36:02;22.30;;;13.60;;
66886;SDS011;53798;51.680;5.976;2022-12-18T10:38:31;23.10;;;16.63;;
66886;SDS011;53798;51.680;5.976;2022-12-18T10:47:02;17.65;;;11.23;;
66886;SDS011;53798;51.680;5.976;2022-12-18T10:49:37;17.70;;;11.02;;
66886;SDS011;53798;51.680;5.976;2022-12-18T10:52:17;18.02;;;11.25;;
66886;SDS011;53798;51.680;5.976;2022-12-18T10:54:52;17.02;;;11.02;;
66886;SDS011;53798;51.680;5.976;2022-12-18T10:57:32;17.90;;;10.65;;
66886;SDS011;53798;51.680;5.976;2022-12-18T11:02:54;19.58;;;10.68;;
66886;SDS011;53798;51.680;5.976;2022-12-18T11:05:26;17.70;;;10.82;;
66886;SDS011;53798;51.680;5.976;2022-12-18T11:08:00;18.00;;;10.90;;
66886;SDS011;53798;51.680;5.976;2022-12-18T11:10:32;19.60;;;11.50;;
66886;SDS011;53798;51.680;5.976;2022-12-18T11:13:17;17.98;;;10.98;;
66886;SDS011;53798;51.680;5.976;2022-12-18T11:15:48;17.50;;;11.07;;
66886;SDS011;53798;51.680;5.976;2022-12-18T11:18:27;17.98;;;11.20;;
66886;SDS011;53798;51.680;5.976;2022-12-18T11:20:57;17.27;;;11.07;;
66886;SDS011;53798;51.680;5.976;2022-12-18T11:23:36;16.38;;;10.07;;
66886;SDS011;53798;51.680;5.976;2022-12-18T11:26:15;18.38;;;10.70;;
66886;SDS011;53798;51.680;5.976;2022-12-18T11:28:52;17.40;;;10.45;;
66886;SDS011;53798;51.680;5.976;2022-12-18T11:31:37;15.88;;;9.82;;
66886;SDS011;53798;51.680;5.976;2022-12-18T11:34:23;17.88;;;10.15;;
66886;SDS011;53798;51.680;5.976;2022-12-18T11:36:58;19.25;;;10.63;;
66886;SDS011;53798;51.680;5.976;2022-12-18T11:39:37;17.85;;;10.27;;
66886;SDS011;53798;51.680;5.976;2022-12-18T11:47:59;19.27;;;11.10;;
66886;SDS011;53798;51.680;5.976;2022-12-18T11:50:57;18.50;;;11.25;;
66886;SDS011;53798;51.680;5.976;2022-12-18T11:53:29;17.33;;;10.35;;
66886;SDS011;53798;51.680;5.976;2022-12-18T11:59:14;119.90;;;46.58;;
66886;SDS011;53798;51.680;5.976;2022-12-18T12:02:03;30.85;;;16.00;;
66886;SDS011;53798;51.680;5.976;2022-12-18T12:08:22;21.10;;;12.63;;
66886;SDS011;53798;51.680;5.976;2022-12-18T12:11:44;25.52;;;11.70;;
66886;SDS011;53798;51.680;5.976;2022-12-18T12:17:02;20.23;;;11.27;;
66886;SDS011;53798;51.680;5.976;2022-12-18T12:29:09;20.98;;;11.13;;
66886;SDS011;53798;51.680;5.976;2022-12-18T12:32:13;18.42;;;10.85;;
66886;SDS011;53798;51.680;5.976;2022-12-18T12:41:05;17.95;;;11.57;;
66886;SDS011;53798;51.680;5.976;2022-12-18T12:43:58;20.00;;;11.57;;
66886;SDS011;53798;51.680;5.976;2022-12-18T12:46:32;18.88;;;10.70;;
66886;SDS011;53798;51.680;5.976;2022-12-18T12:49:20;16.65;;;10.60;;
66886;SDS011;53798;51.680;5.976;2022-12-18T12:52:05;19.33;;;11.43;;
66886;SDS011;53798;51.680;5.976;2022-12-18T12:54:41;21.15;;;11.52;;
66886;SDS011;53798;51.680;5.976;2022-12-18T12:57:31;18.67;;;10.90;;
66886;SDS011;53798;51.680;5.976;2022-12-18T13:00:13;17.85;;;10.40;;
66886;SDS011;53798;51.680;5.976;2022-12-18T13:03:04;17.75;;;10.70;;
66886;SDS011;53798;51.680;5.976;2022-12-18T13:06:28;23.25;;;11.95;;
66886;SDS011;53798;51.680;5.976;2022-12-18T13:09:10;20.23;;;11.38;;
66886;SDS011;53798;51.680;5.976;2022-12-18T13:11:38;18.80;;;11.90;;
66886;SDS011;53798;51.680;5.976;2022-12-18T13:17:16;21.10;;;12.00;;
66886;SDS011;53798;51.680;5.976;2022-12-18T13:20:29;21.45;;;12.13;;
66886;SDS011;53798;51.680;5.976;2022-12-18T13:22:43;22.60;;;11.00;;
66886;SDS011;53798;51.680;5.976;2022-12-18T13:28:48;35.13;;;19.05;;
66886;SDS011;53798;51.680;5.976;2022-12-18T13:34:21;18.67;;;10.70;;
66886;SDS011;53798;51.680;5.976;2022-12-18T13:36:54;18.13;;;11.18;;
66886;SDS011;53798;51.680;5.976;2022-12-18T13:39:43;21.02;;;11.93;;
66886;SDS011;53798;51.680;5.976;2022-12-18T13:44:59;20.00;;;12.02;;
66886;SDS011;53798;51.680;5.976;2022-12-18T13:47:27;20.35;;;11.57;;
66886;SDS011;53798;51.680;5.976;2022-12-18T13:52:37;23.77;;;13.18;;
66886;SDS011;53798;51.680;5.976;2022-12-18T13:55:15;22.67;;;11.60;;
66886;SDS011;53798;51.680;5.976;2022-12-18T13:57:47;21.95;;;13.25;;
66886;SDS011;53798;51.680;5.976;2022-12-18T14:02:52;20.58;;;12.10;;
66886;SDS011;53798;51.680;5.976;2022-12-18T14:10:42;20.15;;;11.60;;
66886;SDS011;53798;51.680;5.976;2022-12-18T14:13:19;19.63;;;12.57;;
66886;SDS011;53798;51.680;5.976;2022-12-18T14:16:02;21.70;;;12.30;;
66886;SDS011;53798;51.680;5.976;2022-12-18T14:18:41;20.48;;;12.02;;
66886;SDS011;53798;51.680;5.976;2022-12-18T14:21:22;28.35;;;14.80;;
66886;SDS011;53798;51.680;5.976;2022-12-18T14:24:36;22.23;;;13.32;;
66886;SDS011;53798;51.680;5.976;2022-12-18T14:26:48;21.63;;;12.52;;
66886;SDS011;53798;51.680;5.976;2022-12-18T14:29:27;22.50;;;12.77;;
66886;SDS011;53798;51.680;5.976;2022-12-18T14:34:49;23.58;;;12.60;;
66886;SDS011;53798;51.680;5.976;2022-12-18T14:37:24;22.83;;;12.80;;
66886;SDS011;53798;51.680;5.976;2022-12-18T14:40:00;24.67;;;13.07;;
66886;SDS011;53798;51.680;5.976;2022-12-18T14:42:37;22.50;;;12.48;;
66886;SDS011;53798;51.680;5.976;2022-12-18T14:48:18;21.25;;;12.68;;
66886;SDS011;53798;51.680;5.976;2022-12-18T14:50:55;21.73;;;12.65;;
66886;SDS011;53798;51.680;5.976;2022-12-18T14:53:32;22.30;;;12.77;;
66886;SDS011;53798;51.680;5.976;2022-12-18T14:58:55;19.90;;;12.43;;
66886;SDS011;53798;51.680;5.976;2022-12-18T15:01:26;20.85;;;13.43;;
66886;SDS011;53798;51.680;5.976;2022-12-18T15:04:02;21.63;;;12.13;;
66886;SDS011;53798;51.680;5.976;2022-12-18T15:09:05;22.85;;;13.52;;
66886;SDS011;53798;51.680;5.976;2022-12-18T15:11:54;22.10;;;13.30;;
66886;SDS011;53798;51.680;5.976;2022-12-18T15:14:30;21.80;;;13.10;;
66886;SDS011;53798;51.680;5.976;2022-12-18T15:17:16;48.75;;;24.75;;
66886;SDS011;53798;51.680;5.976;2022-12-18T15:19:49;22.90;;;15.32;;
66886;SDS011;53798;51.680;5.976;2022-12-18T15:22:41;22.23;;;13.95;;
66886;SDS011;53798;51.680;5.976;2022-12-18T15:25:22;23.25;;;13.27;;
66886;SDS011;53798;51.680;5.976;2022-12-18T15:28:15;25.70;;;14.32;;
66886;SDS011;53798;51.680;5.976;2022-12-18T15:36:20;25.63;;;15.32;;
66886;SDS011;53798;51.680;5.976;2022-12-18T15:38:55;25.05;;;13.55;;
66886;SDS011;53798;51.680;5.976;2022-12-18T15:41:33;24.52;;;14.35;;
66886;SDS011;53798;51.680;5.976;2022-12-18T15:44:15;24.40;;;15.15;;
66886;SDS011;53798;51.680;5.976;2022-12-18T15:46:55;25.80;;;14.85;;
66886;SDS011;53798;51.680;5.976;2022-12-18T15:49:23;28.30;;;14.80;;
66886;SDS011;53798;51.680;5.976;2022-12-18T15:51:54;25.65;;;14.65;;
66886;SDS011;53798;51.680;5.976;2022-12-18T15:54:28;24.83;;;14.93;;
66886;SDS011;53798;51.680;5.976;2022-12-18T15:57:14;28.17;;;17.15;;
66886;SDS011;53798;51.680;5.976;2022-12-18T15:59:54;28.77;;;16.60;;
66886;SDS011;53798;51.680;5.976;2022-12-18T16:02:24;28.27;;;15.60;;
66886;SDS011;53798;51.680;5.976;2022-12-18T16:04:53;25.40;;;15.77;;
66886;SDS011;53798;51.680;5.976;2022-12-18T16:07:20;26.55;;;15.50;;
66886;SDS011;53798;51.680;5.976;2022-12-18T16:09:51;25.48;;;15.82;;
66886;SDS011;53798;51.680;5.976;2022-12-18T16:12:22;25.75;;;15.82;;
66886;SDS011;53798;51.680;5.976;2022-12-18T16:14:52;25.63;;;15.00;;
66886;SDS011;53798;51.680;5.976;2022-12-18T16:17:19;29.70;;;16.50;;
66886;SDS011;53798;51.680;5.976;2022-12-18T16:19:46;24.92;;;14.75;;
66886;SDS011;53798;51.680;5.976;2022-12-18T16:22:21;25.80;;;15.63;;
66886;SDS011;53798;51.680;5.976;2022-12-18T16:24:51;27.30;;;16.33;;
66886;SDS011;53798;51.680;5.976;2022-12-18T16:27:20;28.60;;;16.80;;
66886;SDS011;53798;51.680;5.976;2022-12-18T16:29:49;25.98;;;15.55;;
66886;SDS011;53798;51.680;5.976;2022-12-18T16:32:18;30.17;;;16.40;;
66886;SDS011;53798;51.680;5.976;2022-12-18T16:34:51;26.70;;;15.57;;
66886;SDS011;53798;51.680;5.976;2022-12-18T16:37:18;28.67;;;16.80;;
66886;SDS011;53798;51.680;5.976;2022-12-18T16:39:45;28.27;;;16.75;;
66886;SDS011;53798;51.680;5.976;2022-12-18T16:42:16;30.25;;;17.75;;
66886;SDS011;53798;51.680;5.976;2022-12-18T16:50:09;29.90;;;17.95;;
66886;SDS011;53798;51.680;5.976;2022-12-18T16:52:37;26.02;;;16.10;;
66886;SDS011;53798;51.680;5.976;2022-12-18T16:55:05;27.45;;;15.55;;
66886;SDS011;53798;51.680;5.976;2022-12-18T16:57:32;28.33;;;16.85;;
66886;SDS011;53798;51.680;5.976;2022-12-18T17:00:00;28.48;;;16.55;;
66886;SDS011;53798;51.680;5.976;2022-12-18T17:02:31;32.08;;;17.05;;
66886;SDS011;53798;51.680;5.976;2022-12-18T17:04:59;31.15;;;20.15;;
66886;SDS011;53798;51.680;5.976;2022-12-18T17:07:27;30.17;;;17.80;;
66886;SDS011;53798;51.680;5.976;2022-12-18T17:09:55;27.73;;;17.23;;
66886;SDS011;53798;51.680;5.976;2022-12-18T17:12:24;32.67;;;19.20;;
66886;SDS011;53798;51.680;5.976;2022-12-18T17:14:52;30.77;;;18.20;;
66886;SDS011;53798;51.680;5.976;2022-12-18T17:17:19;30.88;;;17.83;;
66886;SDS011;53798;51.680;5.976;2022-12-18T17:19:50;28.48;;;17.83;;
66886;SDS011;53798;51.680;5.976;2022-12-18T17:22:18;31.33;;;20.25;;
66886;SDS011;53798;51.680;5.976;2022-12-18T17:24:48;36.67;;;22.17;;
66886;SDS011;53798;51.680;5.976;2022-12-18T17:27:15;32.13;;;20.13;;
66886;SDS011;53798;51.680;5.976;2022-12-18T17:29:43;32.90;;;19.70;;
66886;SDS011;53798;51.680;5.976;2022-12-18T17:32:15;34.40;;;20.23;;
66886;SDS011;53798;51.680;5.976;2022-12-18T17:34:43;34.42;;;20.65;;